Gulf - Magdalen - western half: Past 24 Hour Conditions

 

St. John's Int'l Airport

02:30 AM NDT 16 April 2014
This table is a summary of hourly weather conditions for the past 24 hours.
Date / Time
(NDT)
Wind(knots) Conditions Visibility(km) Pressure(kPa) Air tempC) Relative humidity(%) Dew pointC)
16 April 2014
2:30 SW 19 gust 26 Light Drizzle 10 102.2 10 98 10
1:30 SW 14 gust 21 Light Drizzle 10 102.3 10 98 10
0:30 SW 17 gust 27 Cloudy 24 102.3 10 95 9
15 April 2014
23:30 WSW 17 gust 27 Partly Cloudy 24 102.3 10 95 9
22:30 WSW 19 Cloudy 24 102.2 10 95 9
21:30 SW 19 Mostly Cloudy 24 102.2 9 91 8
20:30 WSW 15 gust 21 Cloudy 24 102.2 9 95 9
19:30 W 23 gust 34 Mostly Cloudy 24 102.0 11 91 10
18:30 W 30 gust 37 Mostly Cloudy 24 101.9 12 90 10
17:30 W 21 gust 28 Mostly Cloudy 24 101.9 13 82 10
16:30 W 23 gust 31 Partly Cloudy 24 101.9 14 78 10
15:30 W 25 gust 36 Partly Cloudy 24 101.9 13 81 10
14:30 W 25 gust 33 Mostly Cloudy 24 101.9 14 78 10
13:30 W 26 gust 34 Partly Cloudy 24 101.9 12 86 9
12:30 W 23 gust 28 Cloudy 19 101.9 9 92 8
11:30 WSW 25 Partly Cloudy 19 101.9 9 92 8
10:30 W 21 gust 31 Cloudy 16 101.9 8 96 8
9:30 W 21 Mist 6 101.9 8 99 8
8:30 WSW 21 gust 28 Fog 0.6 101.9 7 99 7
7:30 WSW 20 gust 27 Light Drizzle 0.8 101.9 6 99 6
6:30 WSW 17 Light Drizzle 0.6 101.9 4 99 4
5:30 SSW 10 Light Drizzle 1 102.0 3 99 2
4:30 S 8 Light Drizzle 3 102.1 1 98 1
3:30 S 18 gust 26 Light Drizzle 5 102.1 0 98 0
2:30 S 21 gust 27 Light Drizzle 6 102.2 0 96 0
 
Map of Atlantic - Newfoundland marine weather areas Southwestern Grand Banks - 44138 Banquereau - 44139 Tail of the Bank - 44140 Nickerson Bank - 44251 Northeast Burgeo Bank - 44255 Blanc-Sablon Airport Cap Whittle Chevery Natashquan Airport Heath Point Miscou Island Grand Étang Ingonish Beach North Mountain St.Paul Island J.A. Douglas McCurdy Sydney Airport Charlottetown Airport East Point North Cape Argentia Bonavista Burgeo Cape Race Corner Brook Daniel's Harbour Englee Ferolle Point La Scie Port aux Basques Rocky Harbour Sagona Island St. Anthony Airport St. John's Int'l Airport St. Lawrence Stephenville Airport Twillingate Winterland Wreckhouse Cartwright Airport Mary's Harbour Grates Cove Pool's Island Marticot Island Long Pond Îles de la Madeleine Airport
Legend: buoyBuoy land stationLand Station